sensor_id;sensor_type;location;lat;lon;timestamp;P1;durP1;ratioP1;P2;durP2;ratioP2
64842;SDS011;51310;52.198;5.422;2022-11-04T00:01:59;6.47;;;2.08;;
64842;SDS011;51310;52.198;5.422;2022-11-04T00:04:28;4.82;;;1.20;;
64842;SDS011;51310;52.198;5.422;2022-11-04T00:06:55;6.63;;;1.77;;
64842;SDS011;51310;52.198;5.422;2022-11-04T00:09:23;7.53;;;1.50;;
64842;SDS011;51310;52.198;5.422;2022-11-04T00:11:52;11.10;;;2.27;;
64842;SDS011;51310;52.198;5.422;2022-11-04T00:14:37;7.25;;;1.67;;
64842;SDS011;51310;52.198;5.422;2022-11-04T00:17:03;8.45;;;2.08;;
64842;SDS011;51310;52.198;5.422;2022-11-04T00:19:49;7.10;;;2.22;;
64842;SDS011;51310;52.198;5.422;2022-11-04T00:22:39;5.50;;;1.88;;
64842;SDS011;51310;52.198;5.422;2022-11-04T00:25:25;7.65;;;2.38;;
64842;SDS011;51310;52.198;5.422;2022-11-04T00:28:12;6.37;;;2.60;;
64842;SDS011;51310;52.198;5.422;2022-11-04T00:31:04;4.95;;;1.70;;
64842;SDS011;51310;52.198;5.422;2022-11-04T00:33:52;5.50;;;1.52;;
64842;SDS011;51310;52.198;5.422;2022-11-04T00:36:21;5.40;;;2.15;;
64842;SDS011;51310;52.198;5.422;2022-11-04T00:38:49;6.65;;;2.20;;
64842;SDS011;51310;52.198;5.422;2022-11-04T00:41:15;4.70;;;1.67;;
64842;SDS011;51310;52.198;5.422;2022-11-04T00:43:54;5.37;;;1.47;;
64842;SDS011;51310;52.198;5.422;2022-11-04T00:46:26;3.50;;;1.60;;
64842;SDS011;51310;52.198;5.422;2022-11-04T00:48:55;5.43;;;1.95;;
64842;SDS011;51310;52.198;5.422;2022-11-04T00:51:22;7.63;;;1.45;;
64842;SDS011;51310;52.198;5.422;2022-11-04T00:53:49;4.97;;;1.40;;
64842;SDS011;51310;52.198;5.422;2022-11-04T00:56:15;4.80;;;1.30;;
64842;SDS011;51310;52.198;5.422;2022-11-04T00:58:41;6.82;;;1.50;;
64842;SDS011;51310;52.198;5.422;2022-11-04T01:01:08;5.72;;;1.10;;
64842;SDS011;51310;52.198;5.422;2022-11-04T01:03:46;3.55;;;1.10;;
64842;SDS011;51310;52.198;5.422;2022-11-04T01:06:16;4.93;;;1.98;;
64842;SDS011;51310;52.198;5.422;2022-11-04T01:08:44;5.72;;;1.30;;
64842;SDS011;51310;52.198;5.422;2022-11-04T01:11:11;5.07;;;1.20;;
64842;SDS011;51310;52.198;5.422;2022-11-04T01:13:38;6.93;;;1.30;;
64842;SDS011;51310;52.198;5.422;2022-11-04T01:16:08;4.90;;;1.30;;
64842;SDS011;51310;52.198;5.422;2022-11-04T01:18:37;3.20;;;1.60;;
64842;SDS011;51310;52.198;5.422;2022-11-04T01:21:05;7.38;;;1.70;;
64842;SDS011;51310;52.198;5.422;2022-11-04T01:23:34;6.50;;;1.60;;
64842;SDS011;51310;52.198;5.422;2022-11-04T01:26:11;6.63;;;2.08;;
64842;SDS011;51310;52.198;5.422;2022-11-04T01:28:41;7.82;;;2.90;;
64842;SDS011;51310;52.198;5.422;2022-11-04T01:31:08;5.68;;;2.88;;
64842;SDS011;51310;52.198;5.422;2022-11-04T01:33:45;10.18;;;3.00;;
64842;SDS011;51310;52.198;5.422;2022-11-04T01:36:12;6.10;;;2.63;;
64842;SDS011;51310;52.198;5.422;2022-11-04T01:38:38;7.30;;;2.90;;
64842;SDS011;51310;52.198;5.422;2022-11-04T01:41:04;5.45;;;2.38;;
64842;SDS011;51310;52.198;5.422;2022-11-04T01:46:33;7.65;;;2.92;;
64842;SDS011;51310;52.198;5.422;2022-11-04T01:52:04;7.22;;;3.28;;
64842;SDS011;51310;52.198;5.422;2022-11-04T01:54:38;5.82;;;2.97;;
64842;SDS011;51310;52.198;5.422;2022-11-04T01:57:09;9.27;;;3.17;;
64842;SDS011;51310;52.198;5.422;2022-11-04T01:59:44;7.00;;;3.15;;
64842;SDS011;51310;52.198;5.422;2022-11-04T02:02:10;6.47;;;2.92;;
64842;SDS011;51310;52.198;5.422;2022-11-04T02:04:36;7.93;;;3.70;;
64842;SDS011;51310;52.198;5.422;2022-11-04T02:07:05;8.07;;;3.30;;
64842;SDS011;51310;52.198;5.422;2022-11-04T02:09:35;6.63;;;2.45;;
64842;SDS011;51310;52.198;5.422;2022-11-04T02:12:03;5.78;;;2.10;;
64842;SDS011;51310;52.198;5.422;2022-11-04T02:14:48;3.97;;;2.15;;
64842;SDS011;51310;52.198;5.422;2022-11-04T02:19:47;3.33;;;1.43;;
64842;SDS011;51310;52.198;5.422;2022-11-04T02:26:40;6.17;;;2.20;;
64842;SDS011;51310;52.198;5.422;2022-11-04T02:29:19;6.18;;;1.60;;
64842;SDS011;51310;52.198;5.422;2022-11-04T02:34:59;8.20;;;1.98;;
64842;SDS011;51310;52.198;5.422;2022-11-04T02:52:55;2.90;;;1.05;;
64842;SDS011;51310;52.198;5.422;2022-11-04T02:55:50;4.10;;;1.00;;
64842;SDS011;51310;52.198;5.422;2022-11-04T02:58:26;3.40;;;1.27;;
64842;SDS011;51310;52.198;5.422;2022-11-04T03:01:01;2.88;;;0.95;;
64842;SDS011;51310;52.198;5.422;2022-11-04T03:03:34;5.97;;;1.17;;
64842;SDS011;51310;52.198;5.422;2022-11-04T03:06:11;2.20;;;0.80;;
64842;SDS011;51310;52.198;5.422;2022-11-04T03:08:47;4.38;;;1.20;;
64842;SDS011;51310;52.198;5.422;2022-11-04T03:11:17;3.90;;;1.00;;
64842;SDS011;51310;52.198;5.422;2022-11-04T03:14:02;2.35;;;1.38;;
64842;SDS011;51310;52.198;5.422;2022-11-04T03:16:39;6.32;;;1.40;;
64842;SDS011;51310;52.198;5.422;2022-11-04T03:22:13;3.72;;;1.10;;
64842;SDS011;51310;52.198;5.422;2022-11-04T03:24:45;5.60;;;1.10;;
64842;SDS011;51310;52.198;5.422;2022-11-04T03:30:12;3.67;;;1.10;;
64842;SDS011;51310;52.198;5.422;2022-11-04T03:32:58;5.60;;;1.45;;
64842;SDS011;51310;52.198;5.422;2022-11-04T03:35:31;4.77;;;1.30;;
64842;SDS011;51310;52.198;5.422;2022-11-04T03:37:57;2.40;;;1.30;;
64842;SDS011;51310;52.198;5.422;2022-11-04T03:40:24;6.07;;;1.80;;
64842;SDS011;51310;52.198;5.422;2022-11-04T03:43:02;4.22;;;1.80;;
64842;SDS011;51310;52.198;5.422;2022-11-04T03:45:37;4.53;;;2.50;;
64842;SDS011;51310;52.198;5.422;2022-11-04T03:48:06;4.38;;;2.05;;
64842;SDS011;51310;52.198;5.422;2022-11-04T03:50:37;3.97;;;1.92;;
64842;SDS011;51310;52.198;5.422;2022-11-04T03:53:11;4.03;;;2.30;;
64842;SDS011;51310;52.198;5.422;2022-11-04T04:02:09;4.53;;;2.10;;
64842;SDS011;51310;52.198;5.422;2022-11-04T04:04:53;4.18;;;2.63;;
64842;SDS011;51310;52.198;5.422;2022-11-04T04:07:31;8.73;;;3.00;;
64842;SDS011;51310;52.198;5.422;2022-11-04T04:10:16;6.00;;;2.40;;
64842;SDS011;51310;52.198;5.422;2022-11-04T04:16:03;5.95;;;2.90;;
64842;SDS011;51310;52.198;5.422;2022-11-04T04:19:13;8.13;;;3.00;;
64842;SDS011;51310;52.198;5.422;2022-11-04T04:22:05;5.68;;;2.80;;
64842;SDS011;51310;52.198;5.422;2022-11-04T04:24:43;5.83;;;3.07;;
64842;SDS011;51310;52.198;5.422;2022-11-04T04:27:33;7.47;;;2.83;;
64842;SDS011;51310;52.198;5.422;2022-11-04T04:30:01;5.15;;;2.95;;
64842;SDS011;51310;52.198;5.422;2022-11-04T04:32:37;5.87;;;2.70;;
64842;SDS011;51310;52.198;5.422;2022-11-04T04:35:12;5.68;;;3.10;;
64842;SDS011;51310;52.198;5.422;2022-11-04T04:38:01;4.18;;;2.67;;
64842;SDS011;51310;52.198;5.422;2022-11-04T04:40:50;5.30;;;3.20;;
64842;SDS011;51310;52.198;5.422;2022-11-04T04:43:46;6.90;;;3.28;;
64842;SDS011;51310;52.198;5.422;2022-11-04T04:46:31;5.75;;;3.55;;
64842;SDS011;51310;52.198;5.422;2022-11-04T04:49:05;6.28;;;3.80;;
64842;SDS011;51310;52.198;5.422;2022-11-04T04:51:33;11.50;;;4.18;;
64842;SDS011;51310;52.198;5.422;2022-11-04T04:54:09;10.43;;;5.10;;
64842;SDS011;51310;52.198;5.422;2022-11-04T04:56:34;14.82;;;6.38;;
64842;SDS011;51310;52.198;5.422;2022-11-04T04:59:00;15.80;;;7.63;;
64842;SDS011;51310;52.198;5.422;2022-11-04T05:01:26;19.55;;;8.27;;
64842;SDS011;51310;52.198;5.422;2022-11-04T05:03:52;18.98;;;9.05;;
64842;SDS011;51310;52.198;5.422;2022-11-04T05:06:18;20.13;;;10.73;;
64842;SDS011;51310;52.198;5.422;2022-11-04T05:08:44;23.83;;;11.45;;
64842;SDS011;51310;52.198;5.422;2022-11-04T05:11:10;23.10;;;11.50;;
64842;SDS011;51310;52.198;5.422;2022-11-04T05:13:36;24.65;;;12.98;;
64842;SDS011;51310;52.198;5.422;2022-11-04T05:16:03;32.42;;;13.40;;
64842;SDS011;51310;52.198;5.422;2022-11-04T05:18:38;30.63;;;13.75;;
64842;SDS011;51310;52.198;5.422;2022-11-04T05:21:08;27.77;;;13.88;;
64842;SDS011;51310;52.198;5.422;2022-11-04T05:23:38;30.77;;;14.70;;
64842;SDS011;51310;52.198;5.422;2022-11-04T05:26:04;28.63;;;14.13;;
64842;SDS011;51310;52.198;5.422;2022-11-04T05:28:30;29.27;;;14.60;;
64842;SDS011;51310;52.198;5.422;2022-11-04T05:30:56;34.33;;;16.83;;
64842;SDS011;51310;52.198;5.422;2022-11-04T05:33:29;27.05;;;14.77;;
64842;SDS011;51310;52.198;5.422;2022-11-04T05:36:04;30.77;;;14.48;;
64842;SDS011;51310;52.198;5.422;2022-11-04T05:38:39;35.47;;;16.00;;
64842;SDS011;51310;52.198;5.422;2022-11-04T05:41:06;29.83;;;15.07;;
64842;SDS011;51310;52.198;5.422;2022-11-04T05:43:35;28.70;;;14.90;;
64842;SDS011;51310;52.198;5.422;2022-11-04T05:46:01;25.58;;;14.23;;
64842;SDS011;51310;52.198;5.422;2022-11-04T05:48:28;29.40;;;14.88;;
64842;SDS011;51310;52.198;5.422;2022-11-04T05:50:54;31.35;;;14.82;;
64842;SDS011;51310;52.198;5.422;2022-11-04T05:53:20;27.55;;;15.50;;
64842;SDS011;51310;52.198;5.422;2022-11-04T05:55:46;30.90;;;15.07;;
64842;SDS011;51310;52.198;5.422;2022-11-04T05:58:12;31.27;;;15.25;;
64842;SDS011;51310;52.198;5.422;2022-11-04T06:00:38;33.13;;;15.50;;
64842;SDS011;51310;52.198;5.422;2022-11-04T06:03:03;30.40;;;15.23;;
64842;SDS011;51310;52.198;5.422;2022-11-04T06:05:29;25.00;;;13.90;;
64842;SDS011;51310;52.198;5.422;2022-11-04T06:07:56;29.52;;;15.50;;
64842;SDS011;51310;52.198;5.422;2022-11-04T06:10:22;27.30;;;14.63;;
64842;SDS011;51310;52.198;5.422;2022-11-04T06:12:48;29.90;;;14.20;;
64842;SDS011;51310;52.198;5.422;2022-11-04T06:15:14;35.47;;;16.63;;
64842;SDS011;51310;52.198;5.422;2022-11-04T06:17:40;29.27;;;15.23;;
64842;SDS011;51310;52.198;5.422;2022-11-04T06:20:06;32.60;;;15.13;;
64842;SDS011;51310;52.198;5.422;2022-11-04T06:22:33;31.05;;;14.45;;
64842;SDS011;51310;52.198;5.422;2022-11-04T06:24:59;24.90;;;13.97;;
64842;SDS011;51310;52.198;5.422;2022-11-04T06:27:25;24.37;;;13.37;;
64842;SDS011;51310;52.198;5.422;2022-11-04T06:29:51;28.40;;;14.00;;
64842;SDS011;51310;52.198;5.422;2022-11-04T06:32:17;28.23;;;14.05;;
64842;SDS011;51310;52.198;5.422;2022-11-04T06:34:43;31.63;;;14.57;;
64842;SDS011;51310;52.198;5.422;2022-11-04T06:37:10;30.25;;;15.52;;
64842;SDS011;51310;52.198;5.422;2022-11-04T06:39:36;26.70;;;15.07;;
64842;SDS011;51310;52.198;5.422;2022-11-04T06:42:03;29.75;;;15.82;;
64842;SDS011;51310;52.198;5.422;2022-11-04T06:44:29;34.15;;;16.05;;
64842;SDS011;51310;52.198;5.422;2022-11-04T06:46:57;30.58;;;16.70;;
64842;SDS011;51310;52.198;5.422;2022-11-04T06:49:23;30.67;;;15.68;;
64842;SDS011;51310;52.198;5.422;2022-11-04T06:51:49;30.95;;;15.02;;
64842;SDS011;51310;52.198;5.422;2022-11-04T06:54:16;30.58;;;15.15;;
64842;SDS011;51310;52.198;5.422;2022-11-04T06:56:42;29.57;;;14.63;;
64842;SDS011;51310;52.198;5.422;2022-11-04T06:59:16;33.40;;;15.55;;
64842;SDS011;51310;52.198;5.422;2022-11-04T07:01:45;31.02;;;15.98;;
64842;SDS011;51310;52.198;5.422;2022-11-04T07:04:13;23.42;;;14.00;;
64842;SDS011;51310;52.198;5.422;2022-11-04T07:06:40;26.90;;;15.88;;
64842;SDS011;51310;52.198;5.422;2022-11-04T07:09:08;23.33;;;12.82;;
64842;SDS011;51310;52.198;5.422;2022-11-04T07:11:37;26.23;;;13.55;;
64842;SDS011;51310;52.198;5.422;2022-11-04T07:14:04;27.08;;;13.10;;
64842;SDS011;51310;52.198;5.422;2022-11-04T07:16:30;25.30;;;12.75;;
64842;SDS011;51310;52.198;5.422;2022-11-04T07:18:56;20.27;;;11.02;;
64842;SDS011;51310;52.198;5.422;2022-11-04T07:21:22;26.58;;;11.88;;
64842;SDS011;51310;52.198;5.422;2022-11-04T07:23:48;24.30;;;12.70;;
64842;SDS011;51310;52.198;5.422;2022-11-04T07:26:14;20.43;;;11.20;;
64842;SDS011;51310;52.198;5.422;2022-11-04T07:28:40;24.88;;;11.40;;
64842;SDS011;51310;52.198;5.422;2022-11-04T07:31:06;22.85;;;10.73;;
64842;SDS011;51310;52.198;5.422;2022-11-04T07:33:36;23.27;;;10.27;;
64842;SDS011;51310;52.198;5.422;2022-11-04T07:36:05;18.57;;;11.10;;
64842;SDS011;51310;52.198;5.422;2022-11-04T07:38:37;21.03;;;10.00;;
64842;SDS011;51310;52.198;5.422;2022-11-04T07:41:02;21.23;;;9.50;;
64842;SDS011;51310;52.198;5.422;2022-11-04T07:43:29;18.15;;;10.32;;
64842;SDS011;51310;52.198;5.422;2022-11-04T07:45:58;23.67;;;10.38;;
64842;SDS011;51310;52.198;5.422;2022-11-04T07:48:36;20.38;;;9.82;;
64842;SDS011;51310;52.198;5.422;2022-11-04T07:51:03;20.08;;;10.40;;
64842;SDS011;51310;52.198;5.422;2022-11-04T07:53:32;19.50;;;9.85;;
64842;SDS011;51310;52.198;5.422;2022-11-04T07:56:01;17.73;;;9.70;;
64842;SDS011;51310;52.198;5.422;2022-11-04T07:58:35;19.02;;;9.68;;
64842;SDS011;51310;52.198;5.422;2022-11-04T08:01:06;15.85;;;8.25;;
64842;SDS011;51310;52.198;5.422;2022-11-04T08:03:40;19.67;;;9.48;;
64842;SDS011;51310;52.198;5.422;2022-11-04T08:06:07;21.58;;;10.55;;
64842;SDS011;51310;52.198;5.422;2022-11-04T08:08:37;19.08;;;9.10;;
64842;SDS011;51310;52.198;5.422;2022-11-04T08:11:22;22.63;;;10.35;;
64842;SDS011;51310;52.198;5.422;2022-11-04T08:13:52;26.95;;;10.35;;
64842;SDS011;51310;52.198;5.422;2022-11-04T08:16:20;19.77;;;10.00;;
64842;SDS011;51310;52.198;5.422;2022-11-04T08:18:49;19.60;;;10.38;;
64842;SDS011;51310;52.198;5.422;2022-11-04T08:21:17;21.70;;;10.77;;
64842;SDS011;51310;52.198;5.422;2022-11-04T08:23:45;20.05;;;10.73;;
64842;SDS011;51310;52.198;5.422;2022-11-04T08:26:14;22.83;;;10.93;;
64842;SDS011;51310;52.198;5.422;2022-11-04T08:28:42;22.00;;;11.38;;
64842;SDS011;51310;52.198;5.422;2022-11-04T08:31:10;21.13;;;10.23;;
64842;SDS011;51310;52.198;5.422;2022-11-04T08:33:52;21.60;;;10.47;;
64842;SDS011;51310;52.198;5.422;2022-11-04T08:36:20;16.63;;;9.57;;
64842;SDS011;51310;52.198;5.422;2022-11-04T08:38:55;19.33;;;9.45;;
64842;SDS011;51310;52.198;5.422;2022-11-04T08:41:23;19.98;;;9.52;;
64842;SDS011;51310;52.198;5.422;2022-11-04T08:43:54;17.33;;;9.45;;
64842;SDS011;51310;52.198;5.422;2022-11-04T08:46:24;21.30;;;9.50;;
64842;SDS011;51310;52.198;5.422;2022-11-04T08:48:53;17.77;;;9.57;;
64842;SDS011;51310;52.198;5.422;2022-11-04T08:51:21;20.70;;;9.52;;
64842;SDS011;51310;52.198;5.422;2022-11-04T08:53:50;17.33;;;9.40;;
64842;SDS011;51310;52.198;5.422;2022-11-04T08:56:20;20.70;;;9.47;;
64842;SDS011;51310;52.198;5.422;2022-11-04T08:58:54;18.57;;;8.27;;
64842;SDS011;51310;52.198;5.422;2022-11-04T09:01:22;14.70;;;8.23;;
64842;SDS011;51310;52.198;5.422;2022-11-04T09:03:50;14.40;;;7.45;;
64842;SDS011;51310;52.198;5.422;2022-11-04T09:06:21;13.82;;;6.97;;
64842;SDS011;51310;52.198;5.422;2022-11-04T09:08:51;14.87;;;7.10;;
64842;SDS011;51310;52.198;5.422;2022-11-04T09:11:21;14.07;;;8.00;;
64842;SDS011;51310;52.198;5.422;2022-11-04T09:13:47;16.10;;;7.82;;
64842;SDS011;51310;52.198;5.422;2022-11-04T09:16:13;15.73;;;7.80;;
64842;SDS011;51310;52.198;5.422;2022-11-04T09:18:40;17.85;;;7.68;;
64842;SDS011;51310;52.198;5.422;2022-11-04T09:21:06;17.27;;;8.32;;
64842;SDS011;51310;52.198;5.422;2022-11-04T09:23:35;21.52;;;8.95;;
64842;SDS011;51310;52.198;5.422;2022-11-04T09:26:03;19.17;;;9.25;;
64842;SDS011;51310;52.198;5.422;2022-11-04T09:28:39;15.95;;;8.43;;
64842;SDS011;51310;52.198;5.422;2022-11-04T09:31:10;18.27;;;8.75;;
64842;SDS011;51310;52.198;5.422;2022-11-04T09:33:43;12.50;;;7.78;;
64842;SDS011;51310;52.198;5.422;2022-11-04T09:36:10;14.75;;;7.88;;
64842;SDS011;51310;52.198;5.422;2022-11-04T09:38:38;17.35;;;8.85;;
64842;SDS011;51310;52.198;5.422;2022-11-04T09:44:48;19.05;;;9.90;;
64842;SDS011;51310;52.198;5.422;2022-11-04T09:47:25;18.38;;;10.07;;
64842;SDS011;51310;52.198;5.422;2022-11-04T09:49:55;15.38;;;10.02;;
64842;SDS011;51310;52.198;5.422;2022-11-04T09:52:27;14.63;;;9.27;;
64842;SDS011;51310;52.198;5.422;2022-11-04T09:57:36;15.80;;;9.50;;
64842;SDS011;51310;52.198;5.422;2022-11-04T10:00:03;18.67;;;10.52;;
64842;SDS011;51310;52.198;5.422;2022-11-04T10:02:35;14.38;;;9.43;;
64842;SDS011;51310;52.198;5.422;2022-11-04T10:08:37;18.30;;;11.13;;
64842;SDS011;51310;52.198;5.422;2022-11-04T10:21:02;17.25;;;10.15;;
64842;SDS011;51310;52.198;5.422;2022-11-04T10:27:04;18.13;;;9.67;;
64842;SDS011;51310;52.198;5.422;2022-11-04T10:29:53;13.90;;;9.60;;
64842;SDS011;51310;52.198;5.422;2022-11-04T10:32:31;16.27;;;10.18;;
64842;SDS011;51310;52.198;5.422;2022-11-04T10:38:22;15.65;;;10.48;;
64842;SDS011;51310;52.198;5.422;2022-11-04T10:43:44;15.95;;;9.93;;
64842;SDS011;51310;52.198;5.422;2022-11-04T10:52:02;15.52;;;10.10;;
64842;SDS011;51310;52.198;5.422;2022-11-04T10:54:33;16.27;;;10.13;;
64842;SDS011;51310;52.198;5.422;2022-11-04T10:57:11;20.00;;;9.70;;
64842;SDS011;51310;52.198;5.422;2022-11-04T10:59:55;17.53;;;10.97;;
64842;SDS011;51310;52.198;5.422;2022-11-04T11:07:43;15.57;;;10.20;;
64842;SDS011;51310;52.198;5.422;2022-11-04T11:10:48;15.85;;;10.13;;
64842;SDS011;51310;52.198;5.422;2022-11-04T11:13:23;18.17;;;10.30;;
64842;SDS011;51310;52.198;5.422;2022-11-04T11:16:04;13.05;;;9.30;;
64842;SDS011;51310;52.198;5.422;2022-11-04T11:18:44;12.43;;;9.43;;
64842;SDS011;51310;52.198;5.422;2022-11-04T11:21:43;17.23;;;9.57;;
64842;SDS011;51310;52.198;5.422;2022-11-04T11:24:18;13.80;;;8.10;;
64842;SDS011;51310;52.198;5.422;2022-11-04T11:26:53;15.95;;;10.05;;
64842;SDS011;51310;52.198;5.422;2022-11-04T11:29:36;15.63;;;9.55;;
64842;SDS011;51310;52.198;5.422;2022-11-04T11:32:25;14.85;;;9.18;;
64842;SDS011;51310;52.198;5.422;2022-11-04T11:34:56;13.73;;;9.27;;
64842;SDS011;51310;52.198;5.422;2022-11-04T11:37:25;15.35;;;9.02;;
64842;SDS011;51310;52.198;5.422;2022-11-04T11:39:56;13.82;;;9.48;;
64842;SDS011;51310;52.198;5.422;2022-11-04T11:42:22;17.77;;;9.40;;
64842;SDS011;51310;52.198;5.422;2022-11-04T11:53:14;14.30;;;8.68;;
64842;SDS011;51310;52.198;5.422;2022-11-04T11:55:48;17.60;;;8.85;;
64842;SDS011;51310;52.198;5.422;2022-11-04T11:58:38;15.38;;;7.85;;
64842;SDS011;51310;52.198;5.422;2022-11-04T12:04:28;15.63;;;7.22;;
64842;SDS011;51310;52.198;5.422;2022-11-04T12:06:58;11.98;;;7.47;;
64842;SDS011;51310;52.198;5.422;2022-11-04T12:09:51;13.38;;;6.97;;
64842;SDS011;51310;52.198;5.422;2022-11-04T12:12:45;9.48;;;6.38;;
64842;SDS011;51310;52.198;5.422;2022-11-04T12:22:52;11.10;;;6.32;;
64842;SDS011;51310;52.198;5.422;2022-11-04T12:28:44;10.65;;;5.95;;
64842;SDS011;51310;52.198;5.422;2022-11-04T12:34:54;12.30;;;6.93;;
64842;SDS011;51310;52.198;5.422;2022-11-04T12:37:49;9.43;;;5.72;;
64842;SDS011;51310;52.198;5.422;2022-11-04T12:40:34;12.60;;;5.30;;
64842;SDS011;51310;52.198;5.422;2022-11-04T12:43:45;15.00;;;5.40;;
64842;SDS011;51310;52.198;5.422;2022-11-04T12:50:05;9.03;;;5.40;;
64842;SDS011;51310;52.198;5.422;2022-11-04T12:57:04;9.30;;;5.22;;
64842;SDS011;51310;52.198;5.422;2022-11-04T13:00:16;8.85;;;5.13;;
64842;SDS011;51310;52.198;5.422;2022-11-04T13:02:53;10.30;;;4.57;;
64842;SDS011;51310;52.198;5.422;2022-11-04T13:05:55;10.80;;;4.80;;
64842;SDS011;51310;52.198;5.422;2022-11-04T13:08:45;11.93;;;5.57;;
64842;SDS011;51310;52.198;5.422;2022-11-04T13:11:22;8.60;;;5.13;;
64842;SDS011;51310;52.198;5.422;2022-11-04T13:14:14;9.27;;;4.57;;
64842;SDS011;51310;52.198;5.422;2022-11-04T13:16:53;8.57;;;4.63;;
64842;SDS011;51310;52.198;5.422;2022-11-04T13:19:48;11.32;;;5.30;;
64842;SDS011;51310;52.198;5.422;2022-11-04T13:24:59;8.63;;;2.22;;
64842;SDS011;51310;52.198;5.422;2022-11-04T13:27:42;5.40;;;1.20;;
64842;SDS011;51310;52.198;5.422;2022-11-04T13:34:07;5.47;;;0.88;;
64842;SDS011;51310;52.198;5.422;2022-11-04T13:37:05;3.40;;;0.82;;
64842;SDS011;51310;52.198;5.422;2022-11-04T13:40:02;1.00;;;0.60;;
64842;SDS011;51310;52.198;5.422;2022-11-04T13:46:01;3.75;;;0.77;;
64842;SDS011;51310;52.198;5.422;2022-11-04T13:48:30;0.80;;;0.40;;
64842;SDS011;51310;52.198;5.422;2022-11-04T13:51:04;1.08;;;0.63;;
64842;SDS011;51310;52.198;5.422;2022-11-04T13:53:54;2.00;;;0.50;;
64842;SDS011;51310;52.198;5.422;2022-11-04T14:04:41;1.77;;;0.57;;
64842;SDS011;51310;52.198;5.422;2022-11-04T14:07:16;3.45;;;0.90;;
64842;SDS011;51310;52.198;5.422;2022-11-04T14:14:42;2.10;;;0.50;;
64842;SDS011;51310;52.198;5.422;2022-11-04T14:25:27;1.88;;;0.68;;
64842;SDS011;51310;52.198;5.422;2022-11-04T14:30:43;3.75;;;0.63;;
64842;SDS011;51310;52.198;5.422;2022-11-04T14:41:48;2.28;;;0.68;;
64842;SDS011;51310;52.198;5.422;2022-11-04T14:44:31;3.20;;;0.63;;
64842;SDS011;51310;52.198;5.422;2022-11-04T14:52:30;2.67;;;0.77;;
64842;SDS011;51310;52.198;5.422;2022-11-04T14:57:50;1.45;;;0.80;;
64842;SDS011;51310;52.198;5.422;2022-11-04T15:03:13;2.33;;;0.73;;
64842;SDS011;51310;52.198;5.422;2022-11-04T15:05:50;3.03;;;0.55;;
64842;SDS011;51310;52.198;5.422;2022-11-04T15:08:35;3.00;;;0.63;;
64842;SDS011;51310;52.198;5.422;2022-11-04T15:13:42;2.70;;;0.77;;
64842;SDS011;51310;52.198;5.422;2022-11-04T15:16:19;2.70;;;0.70;;
64842;SDS011;51310;52.198;5.422;2022-11-04T15:18:53;1.83;;;0.40;;
64842;SDS011;51310;52.198;5.422;2022-11-04T15:21:23;1.80;;;0.65;;
64842;SDS011;51310;52.198;5.422;2022-11-04T15:23:51;2.35;;;0.65;;
64842;SDS011;51310;52.198;5.422;2022-11-04T15:26:20;5.22;;;0.98;;
64842;SDS011;51310;52.198;5.422;2022-11-04T15:28:52;4.20;;;0.90;;
64842;SDS011;51310;52.198;5.422;2022-11-04T15:31:27;3.90;;;0.98;;
64842;SDS011;51310;52.198;5.422;2022-11-04T15:33:56;4.43;;;1.30;;
64842;SDS011;51310;52.198;5.422;2022-11-04T15:36:30;2.97;;;0.75;;
64842;SDS011;51310;52.198;5.422;2022-11-04T15:39:10;3.05;;;0.93;;
64842;SDS011;51310;52.198;5.422;2022-11-04T15:41:57;2.10;;;0.90;;
64842;SDS011;51310;52.198;5.422;2022-11-04T15:44:50;4.53;;;1.45;;
64842;SDS011;51310;52.198;5.422;2022-11-04T15:50:02;4.43;;;1.25;;
64842;SDS011;51310;52.198;5.422;2022-11-04T15:52:49;7.47;;;1.83;;
64842;SDS011;51310;52.198;5.422;2022-11-04T15:55:20;9.07;;;1.70;;
64842;SDS011;51310;52.198;5.422;2022-11-04T15:57:51;4.53;;;1.35;;
64842;SDS011;51310;52.198;5.422;2022-11-04T16:00:21;26.20;;;2.88;;
64842;SDS011;51310;52.198;5.422;2022-11-04T16:05:20;6.28;;;1.85;;
64842;SDS011;51310;52.198;5.422;2022-11-04T16:07:55;7.40;;;2.10;;
64842;SDS011;51310;52.198;5.422;2022-11-04T16:10:46;4.00;;;1.60;;
64842;SDS011;51310;52.198;5.422;2022-11-04T16:21:06;7.53;;;1.90;;
64842;SDS011;51310;52.198;5.422;2022-11-04T16:24:00;8.40;;;2.10;;
64842;SDS011;51310;52.198;5.422;2022-11-04T16:26:45;5.63;;;1.90;;
64842;SDS011;51310;52.198;5.422;2022-11-04T16:29:20;6.82;;;2.42;;
64842;SDS011;51310;52.198;5.422;2022-11-04T16:32:16;5.25;;;3.15;;
64842;SDS011;51310;52.198;5.422;2022-11-04T16:34:59;7.90;;;3.90;;
64842;SDS011;51310;52.198;5.422;2022-11-04T16:37:35;7.95;;;3.70;;
64842;SDS011;51310;52.198;5.422;2022-11-04T16:40:01;7.53;;;2.90;;
64842;SDS011;51310;52.198;5.422;2022-11-04T16:42:30;7.68;;;2.85;;
64842;SDS011;51310;52.198;5.422;2022-11-04T16:44:58;10.15;;;3.55;;
64842;SDS011;51310;52.198;5.422;2022-11-04T16:47:27;7.68;;;3.10;;
64842;SDS011;51310;52.198;5.422;2022-11-04T16:49:57;6.85;;;3.05;;
64842;SDS011;51310;52.198;5.422;2022-11-04T16:52:25;6.93;;;3.00;;
64842;SDS011;51310;52.198;5.422;2022-11-04T16:54:52;8.45;;;3.60;;
64842;SDS011;51310;52.198;5.422;2022-11-04T16:57:21;7.65;;;3.63;;
64842;SDS011;51310;52.198;5.422;2022-11-04T16:59:49;7.13;;;3.72;;
64842;SDS011;51310;52.198;5.422;2022-11-04T17:02:25;10.68;;;4.55;;
64842;SDS011;51310;52.198;5.422;2022-11-04T17:05:01;10.02;;;4.43;;
64842;SDS011;51310;52.198;5.422;2022-11-04T17:07:29;7.43;;;3.97;;
64842;SDS011;51310;52.198;5.422;2022-11-04T17:09:55;8.82;;;4.05;;
64842;SDS011;51310;52.198;5.422;2022-11-04T17:12:21;5.97;;;3.40;;
64842;SDS011;51310;52.198;5.422;2022-11-04T17:14:47;9.07;;;4.22;;
64842;SDS011;51310;52.198;5.422;2022-11-04T17:17:13;7.47;;;4.30;;
64842;SDS011;51310;52.198;5.422;2022-11-04T17:19:39;7.47;;;4.55;;
64842;SDS011;51310;52.198;5.422;2022-11-04T17:22:05;10.20;;;5.20;;
64842;SDS011;51310;52.198;5.422;2022-11-04T17:24:32;8.27;;;4.03;;
64842;SDS011;51310;52.198;5.422;2022-11-04T17:26:59;6.30;;;3.97;;
64842;SDS011;51310;52.198;5.422;2022-11-04T17:29:25;11.13;;;4.28;;
64842;SDS011;51310;52.198;5.422;2022-11-04T17:31:51;9.77;;;4.50;;
64842;SDS011;51310;52.198;5.422;2022-11-04T17:34:17;8.00;;;4.23;;
64842;SDS011;51310;52.198;5.422;2022-11-04T17:36:44;9.82;;;4.25;;
64842;SDS011;51310;52.198;5.422;2022-11-04T17:39:10;9.50;;;4.50;;
64842;SDS011;51310;52.198;5.422;2022-11-04T17:41:35;7.80;;;4.47;;
64842;SDS011;51310;52.198;5.422;2022-11-04T17:44:20;9.00;;;4.38;;
64842;SDS011;51310;52.198;5.422;2022-11-04T17:46:46;8.20;;;4.03;;
64842;SDS011;51310;52.198;5.422;2022-11-04T17:49:14;10.80;;;4.78;;
64842;SDS011;51310;52.198;5.422;2022-11-04T17:51:48;10.85;;;4.70;;
64842;SDS011;51310;52.198;5.422;2022-11-04T17:54:21;12.68;;;4.93;;
64842;SDS011;51310;52.198;5.422;2022-11-04T17:56:48;11.00;;;5.25;;
64842;SDS011;51310;52.198;5.422;2022-11-04T17:59:15;8.60;;;4.45;;
64842;SDS011;51310;52.198;5.422;2022-11-04T18:01:42;9.32;;;4.90;;
64842;SDS011;51310;52.198;5.422;2022-11-04T18:04:12;8.73;;;4.85;;
64842;SDS011;51310;52.198;5.422;2022-11-04T18:06:47;12.82;;;5.20;;
64842;SDS011;51310;52.198;5.422;2022-11-04T18:09:15;11.13;;;4.80;;
64842;SDS011;51310;52.198;5.422;2022-11-04T18:11:42;8.88;;;4.15;;
64842;SDS011;51310;52.198;5.422;2022-11-04T18:14:28;10.53;;;4.97;;
64842;SDS011;51310;52.198;5.422;2022-11-04T18:16:55;12.52;;;5.05;;
64842;SDS011;51310;52.198;5.422;2022-11-04T18:19:21;12.43;;;5.22;;
64842;SDS011;51310;52.198;5.422;2022-11-04T18:21:48;14.32;;;5.88;;
64842;SDS011;51310;52.198;5.422;2022-11-04T18:24:15;14.23;;;7.75;;